createdAt,value
2019-01-10T00:00:19.269Z,2.00
2019-01-10T00:02:47.656Z,1.87
2019-01-10T00:05:16.435Z,2.03
2019-01-10T00:07:45.067Z,1.73
2019-01-10T00:10:14.099Z,1.93
2019-01-10T00:12:42.524Z,1.87
2019-01-10T00:15:13.365Z,2.10
2019-01-10T00:17:42.011Z,1.73
2019-01-10T00:20:11.550Z,1.50
2019-01-10T00:22:39.943Z,1.40
2019-01-10T00:25:09.631Z,1.70
2019-01-10T00:27:38.192Z,1.60
2019-01-10T00:30:18.035Z,1.53
2019-01-10T00:32:46.392Z,1.80
2019-01-10T00:35:15.000Z,1.70
2019-01-10T00:37:43.831Z,2.07
2019-01-10T00:40:13.804Z,2.23
2019-01-10T00:42:49.269Z,1.97
2019-01-10T00:45:14.455Z,2.10
2019-01-10T00:47:43.027Z,1.80
2019-01-10T00:50:14.113Z,1.87
2019-01-10T00:52:42.652Z,2.00
2019-01-10T00:55:11.233Z,1.50
2019-01-10T00:57:39.648Z,2.00
2019-01-10T01:00:11.881Z,1.90
2019-01-10T01:02:40.392Z,1.83
2019-01-10T01:05:10.209Z,1.87
2019-01-10T01:07:38.548Z,1.60
2019-01-10T01:10:09.062Z,1.97
2019-01-10T01:12:37.385Z,2.10
2019-01-10T01:15:07.488Z,2.20
2019-01-10T01:17:35.778Z,1.70
2019-01-10T01:20:05.082Z,2.00
2019-01-10T01:22:33.527Z,1.90
2019-01-10T01:25:01.828Z,1.70
2019-01-10T01:27:30.387Z,1.67
2019-01-10T01:29:58.868Z,2.20
2019-01-10T01:32:27.107Z,2.00
2019-01-10T01:34:55.407Z,2.00
2019-01-10T01:37:23.900Z,2.33
2019-01-10T01:39:52.441Z,1.97
2019-01-10T01:42:20.898Z,2.03
2019-01-10T01:44:49.140Z,2.07
2019-01-10T01:47:17.932Z,1.53
2019-01-10T01:49:46.325Z,2.03
2019-01-10T01:52:14.678Z,2.03
2019-01-10T01:54:43.176Z,1.90
2019-01-10T01:57:11.562Z,1.60
2019-01-10T01:59:39.913Z,1.50
2019-01-10T02:02:08.600Z,1.70
2019-01-10T02:04:37.218Z,1.90
2019-01-10T02:07:05.677Z,1.43
2019-01-10T02:09:34.184Z,1.50
2019-01-10T02:12:02.873Z,1.80
2019-01-10T02:14:31.513Z,1.43
2019-01-10T02:16:59.997Z,1.43
2019-01-10T02:19:28.393Z,1.80
2019-01-10T02:21:57.139Z,1.53
2019-01-10T02:24:25.589Z,1.40
2019-01-10T02:26:54.125Z,1.23
2019-01-10T02:29:22.817Z,1.50
2019-01-10T02:31:51.401Z,1.50
2019-01-10T02:34:19.944Z,1.97
2019-01-10T02:36:48.601Z,1.40
2019-01-10T02:39:17.146Z,1.80
2019-01-10T02:41:45.678Z,1.63
2019-01-10T02:44:14.163Z,1.70
2019-01-10T02:46:42.865Z,1.70
2019-01-10T02:49:11.336Z,1.53
2019-01-10T02:51:39.828Z,2.00
2019-01-10T02:54:08.128Z,1.67
2019-01-10T02:56:36.887Z,1.63
2019-01-10T02:59:05.434Z,1.80
2019-01-10T03:01:33.813Z,1.60
2019-01-10T03:04:02.318Z,1.50
2019-01-10T03:06:31.932Z,1.63
2019-01-10T03:09:00.488Z,1.40
2019-01-10T03:11:29.025Z,1.60
2019-01-10T03:13:57.577Z,1.40
2019-01-10T03:16:26.150Z,1.50
2019-01-10T03:18:54.512Z,1.40
2019-01-10T03:21:23.155Z,1.80
2019-01-10T03:23:51.682Z,1.63
2019-01-10T03:26:20.640Z,1.87
2019-01-10T03:28:50.612Z,1.30
2019-01-10T03:31:19.121Z,1.80
2019-01-10T03:33:47.806Z,1.80
2019-01-10T03:36:16.432Z,1.90
2019-01-10T03:38:44.868Z,1.70
2019-01-10T03:41:13.525Z,1.87
2019-01-10T03:43:47.521Z,1.63
2019-01-10T03:46:13.344Z,1.67
2019-01-10T03:48:41.861Z,1.63
2019-01-10T03:51:10.615Z,1.60
2019-01-10T03:53:38.983Z,1.50
2019-01-10T03:56:07.506Z,1.53
2019-01-10T03:58:36.163Z,1.70
2019-01-10T04:01:04.944Z,1.47
2019-01-10T04:03:33.458Z,1.30
2019-01-10T04:06:02.119Z,1.30
2019-01-10T04:08:30.499Z,1.80
2019-01-10T04:10:58.898Z,1.37
2019-01-10T04:13:27.513Z,1.60
2019-01-10T04:15:55.847Z,1.70
2019-01-10T04:18:24.269Z,1.47
2019-01-10T04:20:52.643Z,1.67
2019-01-10T04:23:21.296Z,1.27
2019-01-10T04:25:49.715Z,1.10
2019-01-10T04:28:18.168Z,1.33
2019-01-10T04:30:46.670Z,1.70
2019-01-10T04:33:14.816Z,1.27
2019-01-10T04:35:43.221Z,1.77
2019-01-10T04:38:11.601Z,1.33
2019-01-10T04:40:40.250Z,1.47
2019-01-10T04:43:08.765Z,1.80
2019-01-10T04:45:39.155Z,1.53
2019-01-10T04:48:07.772Z,1.60
2019-01-10T04:50:36.219Z,1.70
2019-01-10T04:53:04.698Z,1.90
2019-01-10T04:55:33.118Z,1.90
2019-01-10T04:58:01.484Z,1.90
2019-01-10T05:00:29.934Z,2.10
2019-01-10T05:02:58.348Z,2.00
2019-01-10T05:05:26.738Z,2.50
2019-01-10T05:07:55.091Z,1.83
2019-01-10T05:10:23.757Z,2.10
2019-01-10T05:12:52.168Z,2.03
2019-01-10T05:15:20.442Z,1.90
2019-01-10T05:17:49.092Z,1.90
2019-01-10T05:20:18.823Z,2.00
2019-01-10T05:22:47.318Z,2.07
2019-01-10T05:25:15.526Z,2.03
2019-01-10T05:27:43.981Z,3.07
2019-01-10T05:30:20.811Z,3.33
2019-01-10T05:32:49.406Z,2.40
2019-01-10T05:35:18.079Z,2.90
2019-01-10T05:37:46.512Z,2.10
2019-01-10T05:40:15.313Z,2.00
2019-01-10T05:42:43.656Z,2.20
2019-01-10T05:45:13.525Z,2.23
2019-01-10T05:47:43.213Z,2.37
2019-01-10T05:50:13.438Z,2.70
2019-01-10T05:52:42.152Z,2.20
2019-01-10T05:55:12.636Z,2.20
2019-01-10T05:57:41.163Z,3.03
2019-01-10T06:00:21.896Z,3.00
2019-01-10T06:02:50.349Z,2.27
2019-01-10T06:05:18.821Z,2.20
2019-01-10T06:07:47.472Z,2.50
2019-01-10T06:10:20.927Z,2.70
2019-01-10T06:12:49.156Z,2.13
2019-01-10T06:15:17.726Z,2.80
2019-01-10T06:17:46.255Z,3.23
2019-01-10T06:20:16.676Z,3.20
2019-01-10T06:22:45.137Z,3.13
2019-01-10T06:25:13.802Z,2.93
2019-01-10T06:27:42.113Z,2.80
2019-01-10T06:30:13.318Z,2.80
2019-01-10T06:32:41.372Z,2.80
2019-01-10T06:35:09.950Z,3.20
2019-01-10T06:37:38.757Z,2.90
2019-01-10T06:40:08.918Z,2.63
2019-01-10T06:42:37.498Z,3.27
2019-01-10T06:45:07.800Z,2.80
2019-01-10T06:47:36.374Z,3.20
2019-01-10T06:50:05.533Z,3.00
2019-01-10T06:52:34.045Z,6.40
2019-01-10T06:55:02.556Z,3.63
2019-01-10T06:57:30.832Z,3.57
2019-01-10T06:59:59.304Z,7.57
2019-01-10T07:02:27.761Z,3.57
2019-01-10T07:04:56.290Z,4.20
2019-01-10T07:07:24.355Z,3.87
2019-01-10T07:09:53.005Z,4.13
2019-01-10T07:12:21.480Z,3.13
2019-01-10T07:14:53.640Z,3.80
2019-01-10T07:17:19.817Z,6.40
2019-01-10T07:19:48.100Z,4.83
2019-01-10T07:22:17.976Z,4.87
2019-01-10T07:24:54.152Z,4.20
2019-01-10T07:27:22.704Z,3.27
2019-01-10T07:29:55.903Z,3.23
2019-01-10T07:32:24.479Z,3.70
2019-01-10T07:34:58.754Z,4.13
2019-01-10T07:37:27.208Z,4.80
2019-01-10T07:39:55.579Z,4.70
2019-01-10T07:42:24.030Z,4.70
2019-01-10T07:44:52.714Z,4.07
2019-01-10T07:47:21.124Z,3.83
2019-01-10T07:49:49.777Z,3.63
2019-01-10T07:52:19.990Z,6.00
2019-01-10T07:54:48.395Z,4.13
2019-01-10T07:57:16.959Z,4.17
2019-01-10T07:59:45.541Z,5.93
2019-01-10T08:02:14.052Z,5.33
2019-01-10T08:04:42.448Z,5.90
2019-01-10T08:07:10.982Z,4.53
2019-01-10T08:09:39.268Z,3.43
2019-01-10T08:12:07.800Z,3.70
2019-01-10T08:14:36.150Z,4.77
2019-01-10T08:17:04.701Z,5.00
2019-01-10T08:19:33.175Z,4.50
2019-01-10T08:22:01.513Z,4.70
2019-01-10T08:24:30.048Z,4.07
2019-01-10T08:26:58.679Z,3.40
2019-01-10T08:29:27.029Z,3.23
2019-01-10T08:31:55.409Z,3.23
2019-01-10T08:34:23.895Z,4.10
2019-01-10T08:36:52.400Z,3.27
2019-01-10T08:39:20.714Z,3.17
2019-01-10T08:41:49.604Z,3.50
2019-01-10T08:44:18.054Z,4.07
2019-01-10T08:46:46.391Z,3.33
2019-01-10T08:49:14.948Z,3.03
2019-01-10T08:51:43.357Z,3.13
2019-01-10T08:54:11.587Z,3.40
2019-01-10T08:56:40.181Z,3.07
2019-01-10T08:59:08.764Z,3.47
2019-01-10T09:01:37.346Z,3.47
2019-01-10T09:04:05.890Z,4.53
2019-01-10T09:06:34.138Z,7.63
2019-01-10T09:09:02.924Z,4.10
2019-01-10T09:11:31.162Z,3.77
2019-01-10T09:13:59.311Z,3.87
2019-01-10T09:16:27.715Z,3.87
2019-01-10T09:18:56.195Z,3.33
2019-01-10T09:21:24.715Z,3.23
2019-01-10T09:23:53.207Z,3.27
2019-01-10T09:26:21.545Z,3.17
2019-01-10T09:28:50.013Z,2.83
2019-01-10T09:31:18.414Z,5.03
2019-01-10T09:33:46.874Z,6.00
2019-01-10T09:36:15.269Z,3.60
2019-01-10T09:38:43.837Z,3.87
2019-01-10T09:41:12.346Z,2.93
2019-01-10T09:43:40.621Z,2.97
2019-01-10T09:46:08.887Z,3.40
2019-01-10T09:48:37.347Z,3.30
2019-01-10T09:51:05.927Z,2.60
2019-01-10T09:53:34.350Z,2.77
2019-01-10T09:56:02.887Z,2.90
2019-01-10T09:58:31.442Z,3.23
2019-01-10T10:01:00.080Z,3.40
2019-01-10T10:03:28.555Z,4.07
2019-01-10T10:05:57.218Z,4.23
2019-01-10T10:08:25.624Z,3.90
2019-01-10T10:10:53.993Z,3.10
2019-01-10T10:13:22.454Z,3.00
2019-01-10T10:15:52.673Z,3.03
2019-01-10T10:18:22.340Z,2.87
2019-01-10T10:20:50.698Z,2.30
2019-01-10T10:23:26.818Z,2.53
2019-01-10T10:25:49.321Z,3.03
2019-01-10T10:28:17.739Z,2.80
2019-01-10T10:30:46.323Z,3.30
2019-01-10T10:33:14.845Z,2.77
2019-01-10T10:35:43.385Z,2.50
2019-01-10T10:38:11.969Z,3.00
2019-01-10T10:40:40.486Z,2.30
2019-01-10T10:43:08.964Z,2.43
2019-01-10T10:45:37.341Z,2.60
2019-01-10T10:48:05.888Z,2.10
2019-01-10T10:50:34.301Z,2.80
2019-01-10T10:53:04.984Z,3.23
2019-01-10T10:55:33.499Z,2.60
2019-01-10T10:58:01.794Z,2.40
2019-01-10T11:00:30.645Z,2.93
2019-01-10T11:02:59.856Z,3.10
2019-01-10T11:05:28.528Z,2.63
2019-01-10T11:07:56.927Z,2.40
2019-01-10T11:10:25.693Z,2.70
2019-01-10T11:12:54.071Z,4.90
2019-01-10T11:15:22.503Z,3.33
2019-01-10T11:17:51.031Z,2.53
2019-01-10T11:20:21.700Z,3.10
2019-01-10T11:22:50.449Z,2.57
2019-01-10T11:25:21.274Z,2.67
2019-01-10T11:27:50.720Z,2.50
2019-01-10T11:30:19.363Z,1.90
2019-01-10T11:32:47.734Z,2.30
2019-01-10T11:35:16.311Z,2.67
2019-01-10T11:37:45.034Z,2.00
2019-01-10T11:40:15.899Z,2.47
2019-01-10T11:42:44.335Z,2.67
2019-01-10T11:45:14.915Z,2.20
2019-01-10T11:47:43.546Z,1.90
2019-01-10T11:50:12.890Z,2.27
2019-01-10T11:52:41.471Z,2.10
2019-01-10T11:55:10.208Z,2.00
2019-01-10T11:57:38.799Z,4.77
2019-01-10T12:00:10.800Z,3.63
2019-01-10T12:02:39.345Z,1.97
2019-01-10T12:05:08.223Z,1.80
2019-01-10T12:07:36.612Z,1.50
2019-01-10T12:10:06.416Z,1.60
2019-01-10T12:12:34.853Z,2.30
2019-01-10T12:15:03.305Z,2.00
2019-01-10T12:17:31.724Z,1.43
2019-01-10T12:20:00.378Z,1.47
2019-01-10T12:22:28.757Z,1.70
2019-01-10T12:24:57.241Z,2.00
2019-01-10T12:27:25.716Z,2.17
2019-01-10T12:29:54.083Z,1.83
2019-01-10T12:32:22.808Z,4.93
2019-01-10T12:34:51.369Z,1.80
2019-01-10T12:37:19.793Z,1.40
2019-01-10T12:39:48.394Z,2.03
2019-01-10T12:42:16.872Z,1.87
2019-01-10T12:44:45.295Z,1.67
2019-01-10T12:47:13.767Z,1.70
2019-01-10T12:49:41.939Z,1.60
2019-01-10T12:52:10.486Z,1.40
2019-01-10T12:54:38.971Z,1.50
2019-01-10T12:57:07.344Z,1.10
2019-01-10T12:59:35.928Z,1.00
2019-01-10T13:02:04.453Z,1.57
2019-01-10T13:04:34.041Z,1.47
2019-01-10T13:07:02.425Z,1.13
2019-01-10T13:09:31.179Z,1.60
2019-01-10T13:11:59.591Z,1.73
2019-01-10T13:14:27.973Z,1.80
2019-01-10T13:16:56.622Z,1.77
2019-01-10T13:19:25.236Z,1.50
2019-01-10T13:21:53.530Z,1.60
2019-01-10T13:24:22.064Z,1.50
2019-01-10T13:26:50.788Z,3.03
2019-01-10T13:29:19.157Z,2.70
2019-01-10T13:31:47.707Z,2.30
2019-01-10T13:34:15.905Z,2.50
2019-01-10T13:36:44.288Z,2.10
2019-01-10T13:39:12.850Z,4.53
2019-01-10T13:41:41.433Z,6.57
2019-01-10T13:44:09.941Z,1.80
2019-01-10T13:46:38.404Z,1.80
2019-01-10T13:49:06.863Z,2.00
2019-01-10T13:51:35.447Z,2.00
2019-01-10T13:54:04.460Z,2.03
2019-01-10T13:56:32.737Z,1.90
2019-01-10T13:59:01.196Z,2.00
2019-01-10T14:01:29.884Z,1.73
2019-01-10T14:03:58.399Z,1.67
2019-01-10T14:06:26.660Z,2.33
2019-01-10T14:08:55.321Z,1.93
2019-01-10T14:11:23.836Z,2.23
2019-01-10T14:13:52.204Z,1.83
2019-01-10T14:16:20.971Z,1.77
2019-01-10T14:18:49.391Z,2.40
2019-01-10T14:21:17.600Z,1.80
2019-01-10T14:23:46.206Z,1.77
2019-01-10T14:26:14.608Z,1.70
2019-01-10T14:28:43.197Z,1.30
2019-01-10T14:31:11.634Z,1.50
2019-01-10T14:33:40.226Z,1.73
2019-01-10T14:36:08.943Z,2.10
2019-01-10T14:38:37.413Z,1.50
2019-01-10T14:41:05.700Z,2.00
2019-01-10T14:43:34.250Z,5.37
2019-01-10T14:46:02.754Z,5.13
2019-01-10T14:48:30.975Z,2.20
2019-01-10T14:50:59.386Z,2.03
2019-01-10T14:53:27.873Z,1.97
2019-01-10T14:55:55.980Z,2.20
2019-01-10T14:58:24.303Z,2.27
2019-01-10T15:00:52.792Z,2.70
2019-01-10T15:03:21.133Z,3.07
2019-01-10T15:05:49.638Z,4.20
2019-01-10T15:08:18.167Z,3.23
2019-01-10T15:10:46.545Z,2.87
2019-01-10T15:13:15.091Z,4.03
2019-01-10T15:15:43.729Z,3.00
2019-01-10T15:18:11.974Z,3.03
2019-01-10T15:20:40.435Z,2.57
2019-01-10T15:23:09.235Z,2.93
2019-01-10T15:25:37.703Z,3.00
2019-01-10T15:28:06.027Z,2.63
2019-01-10T15:30:34.727Z,3.40
2019-01-10T15:33:03.076Z,4.37
2019-01-10T15:35:31.642Z,3.87
2019-01-10T15:37:59.903Z,4.33
2019-01-10T15:40:33.038Z,4.17
2019-01-10T15:43:02.201Z,3.90
2019-01-10T15:45:30.612Z,4.10
2019-01-10T15:47:58.816Z,3.40
2019-01-10T15:50:27.314Z,3.67
2019-01-10T15:52:55.521Z,3.20
2019-01-10T15:55:23.897Z,3.30
2019-01-10T15:57:52.448Z,2.60
2019-01-10T16:00:22.365Z,3.47
2019-01-10T16:02:50.899Z,3.40
2019-01-10T16:05:19.429Z,3.30
2019-01-10T16:07:48.110Z,5.03
2019-01-10T16:10:17.767Z,5.90
2019-01-10T16:12:46.446Z,2.73
2019-01-10T16:15:17.076Z,2.90
2019-01-10T16:17:45.536Z,2.77
2019-01-10T16:20:14.195Z,2.50
2019-01-10T16:22:42.920Z,3.00
2019-01-10T16:25:11.707Z,2.97
2019-01-10T16:27:40.456Z,2.60
2019-01-10T16:30:12.656Z,2.90
2019-01-10T16:32:41.206Z,2.60
2019-01-10T16:35:09.788Z,3.13
2019-01-10T16:37:39.600Z,3.10
2019-01-10T16:40:09.170Z,3.83
2019-01-10T16:42:37.397Z,3.23
2019-01-10T16:45:08.641Z,2.60
2019-01-10T16:47:37.212Z,2.27
2019-01-10T16:50:06.450Z,2.70
2019-01-10T16:52:34.919Z,2.97
2019-01-10T16:55:03.915Z,2.57
2019-01-10T16:57:33.590Z,2.60
2019-01-10T17:00:02.017Z,2.83
2019-01-10T17:02:36.028Z,5.77
2019-01-10T17:05:00.265Z,3.13
2019-01-10T17:07:28.941Z,5.70
2019-01-10T17:09:57.421Z,2.83
2019-01-10T17:12:25.819Z,3.00
2019-01-10T17:14:54.099Z,2.33
2019-01-10T17:17:22.555Z,2.13
2019-01-10T17:19:50.739Z,2.30
2019-01-10T17:22:19.133Z,2.20
2019-01-10T17:24:47.690Z,1.87
2019-01-10T17:27:16.495Z,2.30
2019-01-10T17:29:45.035Z,2.50
2019-01-10T17:32:13.676Z,2.30
2019-01-10T17:34:42.328Z,2.80
2019-01-10T17:37:10.719Z,2.17
2019-01-10T17:39:40.548Z,2.10
2019-01-10T17:42:09.122Z,2.80
2019-01-10T17:44:37.612Z,2.27
2019-01-10T17:47:06.093Z,2.27
2019-01-10T17:49:34.985Z,3.00
2019-01-10T17:52:03.468Z,2.10
2019-01-10T17:54:32.944Z,2.50
2019-01-10T17:57:01.464Z,2.40
2019-01-10T17:59:30.140Z,2.87
2019-01-10T18:01:58.798Z,2.60
2019-01-10T18:04:27.200Z,2.33
2019-01-10T18:06:55.745Z,2.00
2019-01-10T18:09:24.168Z,3.87
2019-01-10T18:11:52.655Z,6.70
2019-01-10T18:14:21.087Z,2.83
2019-01-10T18:16:49.718Z,2.63
2019-01-10T18:19:18.068Z,2.47
2019-01-10T18:21:46.363Z,2.63
2019-01-10T18:24:14.902Z,1.90
2019-01-10T18:26:43.486Z,2.00
2019-01-10T18:29:11.883Z,1.90
2019-01-10T18:31:40.355Z,1.90
2019-01-10T18:34:08.926Z,2.10
2019-01-10T18:36:37.339Z,1.83
2019-01-10T18:39:07.358Z,1.60
2019-01-10T18:41:36.565Z,1.80
2019-01-10T18:44:05.305Z,2.47
2019-01-10T18:46:33.836Z,2.30
2019-01-10T18:49:02.408Z,1.93
2019-01-10T18:51:30.898Z,3.17
2019-01-10T18:54:00.351Z,4.10
2019-01-10T18:56:28.863Z,4.23
2019-01-10T18:58:57.374Z,2.50
2019-01-10T19:01:25.834Z,3.47
2019-01-10T19:03:54.519Z,3.37
2019-01-10T19:06:22.893Z,2.13
2019-01-10T19:08:51.440Z,2.37
2019-01-10T19:11:20.073Z,2.07
2019-01-10T19:13:48.395Z,2.60
2019-01-10T19:16:17.972Z,2.93
2019-01-10T19:18:46.389Z,5.10
2019-01-10T19:21:15.009Z,1.60
2019-01-10T19:23:43.485Z,1.70
2019-01-10T19:26:11.803Z,1.60
2019-01-10T19:28:40.202Z,1.80
2019-01-10T19:31:08.836Z,1.70
2019-01-10T19:33:37.213Z,1.77
2019-01-10T19:36:05.849Z,1.63
2019-01-10T19:38:34.364Z,1.60
2019-01-10T19:41:02.723Z,1.60
2019-01-10T19:43:32.451Z,1.57
2019-01-10T19:46:01.105Z,1.60
2019-01-10T19:48:29.413Z,1.50
2019-01-10T19:50:57.755Z,1.30
2019-01-10T19:53:26.389Z,3.07
2019-01-10T19:55:54.635Z,2.87
2019-01-10T19:58:23.007Z,2.30
2019-01-10T20:00:54.233Z,1.80
2019-01-10T20:03:22.716Z,2.03
2019-01-10T20:05:51.895Z,1.60
2019-01-10T20:08:20.291Z,2.17
2019-01-10T20:10:48.874Z,1.47
2019-01-10T20:13:17.459Z,2.03
2019-01-10T20:15:45.939Z,3.87
2019-01-10T20:18:16.395Z,2.50
2019-01-10T20:20:44.458Z,1.77
2019-01-10T20:23:18.460Z,2.13
2019-01-10T20:25:46.750Z,2.40
2019-01-10T20:28:15.331Z,1.83
2019-01-10T20:30:43.744Z,2.23
2019-01-10T20:33:12.160Z,2.30
2019-01-10T20:35:40.584Z,2.20
2019-01-10T20:38:09.121Z,1.57
2019-01-10T20:40:37.709Z,1.90
2019-01-10T20:43:06.219Z,1.87
2019-01-10T20:45:34.776Z,2.17
2019-01-10T20:48:03.219Z,2.17
2019-01-10T20:50:31.486Z,2.33
2019-01-10T20:52:59.935Z,2.97
2019-01-10T20:55:28.247Z,2.67
2019-01-10T20:57:56.593Z,2.57
2019-01-10T21:00:26.809Z,2.37
2019-01-10T21:02:55.097Z,2.53
2019-01-10T21:05:23.361Z,2.30
2019-01-10T21:07:53.043Z,3.80
2019-01-10T21:10:21.860Z,3.30
2019-01-10T21:12:50.479Z,2.07
2019-01-10T21:15:21.449Z,2.07
2019-01-10T21:17:49.960Z,1.87
2019-01-10T21:20:18.353Z,1.97
2019-01-10T21:22:46.782Z,1.87
2019-01-10T21:25:15.674Z,1.60
2019-01-10T21:27:43.984Z,1.60
2019-01-10T21:30:14.688Z,1.87
2019-01-10T21:32:42.895Z,1.90
2019-01-10T21:35:11.251Z,2.00
2019-01-10T21:37:39.790Z,2.10
2019-01-10T21:40:10.380Z,1.67
2019-01-10T21:42:38.983Z,1.77
2019-01-10T21:45:26.660Z,2.17
2019-01-10T21:47:55.345Z,1.97
2019-01-10T21:50:25.300Z,2.40
2019-01-10T21:52:54.066Z,2.53
2019-01-10T21:55:22.731Z,2.40
2019-01-10T21:57:51.444Z,2.60
2019-01-10T22:00:25.347Z,2.10
2019-01-10T22:02:59.659Z,1.97
2019-01-10T22:05:37.162Z,1.60
2019-01-10T22:08:13.752Z,1.80
2019-01-10T22:10:49.168Z,1.70
2019-01-10T22:13:29.915Z,1.90
2019-01-10T22:16:08.435Z,1.70
2019-01-10T22:18:44.740Z,1.70
2019-01-10T22:21:24.992Z,1.77
2019-01-10T22:24:04.091Z,2.20
2019-01-10T22:26:39.013Z,2.33
2019-01-10T22:29:07.697Z,2.20
2019-01-10T22:31:36.123Z,2.13
2019-01-10T22:34:04.495Z,1.70
2019-01-10T22:36:32.873Z,1.43
2019-01-10T22:39:01.148Z,1.70
2019-01-10T22:41:29.128Z,1.70
2019-01-10T22:43:57.381Z,1.57
2019-01-10T22:46:25.667Z,1.57
2019-01-10T22:48:54.355Z,1.80
2019-01-10T22:51:22.678Z,1.87
2019-01-10T22:53:51.001Z,1.57
2019-01-10T22:56:19.551Z,1.77
2019-01-10T22:58:47.720Z,1.63
2019-01-10T23:01:45.795Z,1.67
2019-01-10T23:04:24.835Z,1.57
2019-01-10T23:06:53.406Z,1.63
2019-01-10T23:09:21.806Z,1.70
2019-01-10T23:11:50.197Z,1.70
2019-01-10T23:14:18.690Z,1.80
2019-01-10T23:16:47.224Z,1.60
2019-01-10T23:19:15.827Z,1.53
2019-01-10T23:21:44.284Z,4.43
2019-01-10T23:24:17.290Z,3.90
2019-01-10T23:26:50.699Z,1.60
2019-01-10T23:29:19.153Z,2.20
2019-01-10T23:31:48.268Z,1.80
2019-01-10T23:34:16.633Z,1.80
2019-01-10T23:36:50.178Z,1.80
2019-01-10T23:39:20.352Z,1.70
2019-01-10T23:41:49.468Z,2.03
2019-01-10T23:44:18.472Z,1.70
2019-01-10T23:46:46.853Z,1.57
2019-01-10T23:49:15.492Z,2.03
2019-01-10T23:51:43.973Z,1.93
2019-01-10T23:54:12.675Z,1.90
2019-01-10T23:56:40.980Z,2.03
2019-01-10T23:59:28.766Z,1.97
